Time;durP1;ratioP1;P1;durP2;ratioP2;P2;SDS_P1;SDS_P2;PMS_P1;PMS_P2;Temp;Humidity;BMP_temperature;BMP_pressure;BME280_temperature;BME280_humidity;BME280_pressure;Samples;Min_cycle;Max_cycle;Signal;HPM_P1;HPM_P2
2021/11/21 00:00:25;;;;;;;143.80;55.53;;;8.70;99.90;;;;;;4994620;28;20026;-73
2021/11/21 00:02:51;;;;;;;140.52;56.83;;;8.70;99.90;;;;;;4994774;28;20479;-73
2021/11/21 00:05:17;;;;;;;132.70;54.17;;;8.60;99.90;;;;;;4994393;28;20092;-73
2021/11/21 00:07:43;;;;;;;143.75;55.63;;;8.60;99.90;;;;;;4994544;28;20030;-73
2021/11/21 00:10:10;;;;;;;137.43;57.17;;;8.60;99.90;;;;;;4994330;28;20026;-74
2021/11/21 00:12:36;;;;;;;139.98;56.60;;;8.50;99.90;;;;;;4994395;28;20030;-73
2021/11/21 00:15:05;;;;;;;144.27;56.60;;;8.50;99.90;;;;;;4994141;28;20041;-73
2021/11/21 00:17:32;;;;;;;135.90;56.03;;;8.50;99.90;;;;;;4994136;28;20034;-73
2021/11/21 00:19:57;;;;;;;142.88;58.33;;;8.40;99.90;;;;;;4994007;28;20031;-73
2021/11/21 00:22:25;;;;;;;140.95;57.30;;;8.40;99.90;;;;;;4994027;28;20097;-73
2021/11/21 00:24:52;;;;;;;135.88;56.33;;;8.50;99.90;;;;;;4976805;28;20037;-73
2021/11/21 00:27:19;;;;;;;141.77;55.33;;;8.50;99.90;;;;;;4993858;28;20030;-73
2021/11/21 00:29:44;;;;;;;131.68;55.33;;;8.50;99.90;;;;;;4976547;28;20061;-74
2021/11/21 00:32:11;;;;;;;125.65;54.75;;;8.50;99.90;;;;;;4993948;28;20069;-73
2021/11/21 00:34:37;;;;;;;128.70;53.80;;;8.50;99.90;;;;;;4994760;28;20037;-73
2021/11/21 00:37:03;;;;;;;126.35;50.78;;;8.50;99.90;;;;;;4993575;28;20054;-73
2021/11/21 00:39:29;;;;;;;115.65;50.72;;;8.50;99.90;;;;;;4993994;28;20031;-73
2021/11/21 00:41:55;;;;;;;118.50;49.42;;;8.50;99.90;;;;;;4993809;28;20046;-73
2021/11/21 00:44:22;;;;;;;119.95;49.60;;;8.50;99.90;;;;;;4993862;28;20058;-73
2021/11/21 00:46:48;;;;;;;110.45;48.33;;;8.40;99.90;;;;;;4976352;28;20549;-73
2021/11/21 00:49:16;;;;;;;112.85;47.55;;;8.40;99.90;;;;;;4993573;28;20030;-73
2021/11/21 00:51:44;;;;;;;102.10;42.60;;;8.40;99.90;;;;;;4993617;28;20402;-73
2021/11/21 00:54:40;;;;;;;112.68;45.25;;;8.40;99.90;;;;;;4993406;28;20384;-73
2021/11/21 00:57:06;;;;;;;97.57;44.65;;;8.40;99.90;;;;;;4993795;28;20441;-73
2021/11/21 00:59:32;;;;;;;103.25;44.92;;;8.30;99.90;;;;;;4993486;28;20026;-73
2021/11/21 01:01:57;;;;;;;102.35;43.15;;;8.40;99.90;;;;;;4993383;28;20391;-74
2021/11/21 01:04:23;;;;;;;111.43;46.17;;;8.30;99.90;;;;;;4993412;28;20399;-73
2021/11/21 01:06:52;;;;;;;110.38;46.60;;;8.30;99.90;;;;;;4993574;28;20117;-73
2021/11/21 01:09:23;;;;;;;117.43;47.75;;;8.20;99.90;;;;;;4993675;28;20078;-73
2021/11/21 01:11:49;;;;;;;112.43;46.67;;;8.20;99.90;;;;;;4993633;28;20034;-73
2021/11/21 01:14:15;;;;;;;114.85;46.63;;;8.20;99.90;;;;;;4993447;28;20056;-73
2021/11/21 01:16:40;;;;;;;118.72;44.70;;;8.20;99.90;;;;;;4993449;28;20129;-73
2021/11/21 01:19:06;;;;;;;106.38;43.08;;;8.10;99.90;;;;;;4993447;28;20031;-73
2021/11/21 01:21:32;;;;;;;113.60;44.28;;;8.10;99.90;;;;;;4975776;28;20046;-73
2021/11/21 01:23:58;;;;;;;114.65;43.92;;;8.10;99.90;;;;;;4993455;28;20069;-73
2021/11/21 01:26:24;;;;;;;108.15;43.72;;;8.10;99.90;;;;;;4975952;28;20031;-73
2021/11/21 01:28:50;;;;;;;115.15;42.10;;;8.00;99.90;;;;;;4993270;28;20031;-73
2021/11/21 01:31:16;;;;;;;101.72;41.67;;;8.00;99.90;;;;;;4992509;28;20645;-72
2021/11/21 01:33:41;;;;;;;103.55;40.20;;;8.00;99.90;;;;;;4992244;28;20046;-72
2021/11/21 01:36:07;;;;;;;93.38;39.45;;;8.00;99.90;;;;;;4992640;28;20046;-72
2021/11/21 01:38:33;;;;;;;90.40;41.22;;;8.00;99.90;;;;;;4994685;28;20042;-72
2021/11/21 01:40:59;;;;;;;90.47;39.67;;;8.00;99.90;;;;;;4990547;28;20121;-73
2021/11/21 01:43:25;;;;;;;85.15;39.72;;;8.00;99.90;;;;;;4973345;28;20373;-72
2021/11/21 01:45:51;;;;;;;81.82;39.50;;;8.00;99.90;;;;;;4986406;28;20041;-73
2021/11/21 01:48:16;;;;;;;90.93;38.65;;;8.00;99.90;;;;;;4972000;28;20027;-73
2021/11/21 01:50:44;;;;;;;82.38;37.67;;;8.10;99.90;;;;;;4981232;28;20471;-75
2021/11/21 01:53:11;;;;;;;88.00;40.20;;;8.10;99.90;;;;;;4999276;28;20030;-73
2021/11/21 01:55:38;;;;;;;84.82;39.17;;;8.20;99.90;;;;;;4992124;28;20029;-73
2021/11/21 01:58:04;;;;;;;92.25;43.88;;;8.20;99.90;;;;;;4991979;28;20034;-73
2021/11/21 02:00:35;;;;;;;97.45;42.42;;;8.30;99.90;;;;;;4992003;28;20030;-73
2021/11/21 02:03:01;;;;;;;83.88;39.53;;;8.30;99.90;;;;;;4975445;28;20084;-73
2021/11/21 02:05:27;;;;;;;88.93;40.38;;;8.30;99.90;;;;;;4994704;28;20036;-73
2021/11/21 02:07:52;;;;;;;89.55;41.67;;;8.40;99.90;;;;;;4996358;28;20034;-72
2021/11/21 02:10:20;;;;;;;108.70;43.55;;;8.50;99.90;;;;;;4995547;28;20035;-73
2021/11/21 02:12:46;;;;;;;98.82;43.70;;;8.50;99.90;;;;;;4996063;28;20023;-72
2021/11/21 02:15:15;;;;;;;101.07;42.13;;;8.60;99.90;;;;;;4996173;28;20073;-73
2021/11/21 02:17:41;;;;;;;96.00;43.13;;;8.60;99.90;;;;;;4996156;28;20038;-73
2021/11/21 02:20:10;;;;;;;99.43;44.38;;;8.70;99.90;;;;;;4996226;28;20038;-73
2021/11/21 02:22:37;;;;;;;106.25;45.88;;;8.70;99.90;;;;;;4995908;28;20495;-73
2021/11/21 02:25:03;;;;;;;95.00;42.42;;;8.80;99.90;;;;;;4995422;28;20041;-73
2021/11/21 02:27:30;;;;;;;83.18;38.70;;;8.80;99.90;;;;;;4995547;28;20034;-73
2021/11/21 02:29:57;;;;;;;72.22;33.70;;;8.80;99.90;;;;;;4995454;28;20053;-73
2021/11/21 02:32:23;;;;;;;62.63;31.20;;;8.80;99.90;;;;;;4995928;28;20410;-73
2021/11/21 02:34:48;;;;;;;51.47;27.70;;;8.80;99.90;;;;;;4995636;28;20502;-73
2021/11/21 02:37:14;;;;;;;53.90;27.50;;;8.80;99.90;;;;;;4994937;28;20078;-73
2021/11/21 02:39:40;;;;;;;58.22;27.95;;;8.70;99.90;;;;;;4995902;28;20045;-73
2021/11/21 02:42:07;;;;;;;55.00;28.48;;;8.70;99.90;;;;;;4995702;28;20038;-73
2021/11/21 02:44:33;;;;;;;60.35;28.67;;;8.60;99.90;;;;;;4995708;28;20030;-73
2021/11/21 02:46:59;;;;;;;64.57;31.20;;;8.60;99.90;;;;;;4977811;28;20532;-73
2021/11/21 02:49:25;;;;;;;66.05;31.02;;;8.60;99.90;;;;;;4995232;28;20040;-72
2021/11/21 02:51:51;;;;;;;64.93;32.35;;;8.70;99.90;;;;;;4995684;28;20038;-72
2021/11/21 02:54:17;;;;;;;61.92;30.30;;;8.70;99.90;;;;;;4995382;28;20053;-73
2021/11/21 02:56:43;;;;;;;66.40;31.83;;;8.70;99.90;;;;;;4994624;28;20031;-73
2021/11/21 02:59:09;;;;;;;72.65;32.83;;;8.70;99.90;;;;;;4995094;28;20391;-73
2021/11/21 03:01:34;;;;;;;76.18;33.63;;;8.80;99.90;;;;;;4995308;28;20501;-73
2021/11/21 03:04:00;;;;;;;77.68;34.97;;;8.80;99.90;;;;;;4995258;28;20038;-73
2021/11/21 03:06:28;;;;;;;87.95;36.10;;;8.80;99.90;;;;;;4977570;28;20479;-73
2021/11/21 03:08:55;;;;;;;79.35;35.65;;;8.80;99.90;;;;;;4995172;28;20022;-73
2021/11/21 03:11:29;;;;;;;91.38;39.42;;;8.80;99.90;;;;;;4994549;28;20034;-73
2021/11/21 03:13:57;;;;;;;87.78;39.75;;;8.80;99.90;;;;;;4995288;28;20042;-73
2021/11/21 03:16:23;;;;;;;80.57;38.58;;;8.80;99.90;;;;;;4993965;28;20026;-73
2021/11/21 03:18:49;;;;;;;84.32;36.80;;;8.80;99.90;;;;;;4995019;28;20042;-73
2021/11/21 03:21:15;;;;;;;82.78;35.47;;;8.80;99.90;;;;;;4995065;28;20165;-73
2021/11/21 03:23:42;;;;;;;79.82;35.65;;;8.80;99.90;;;;;;4994998;28;20447;-72
2021/11/21 03:26:08;;;;;;;79.03;35.63;;;8.80;99.90;;;;;;4994840;28;20034;-73
2021/11/21 03:28:34;;;;;;;70.07;33.20;;;8.80;99.90;;;;;;4997267;28;20045;-73
2021/11/21 03:31:00;;;;;;;71.65;33.35;;;8.80;99.90;;;;;;4995311;28;20026;-74
2021/11/21 03:33:29;;;;;;;81.65;36.05;;;8.80;99.90;;;;;;4996661;28;20113;-74
2021/11/21 03:35:59;;;;;;;76.18;33.85;;;8.80;99.90;;;;;;4996450;28;20470;-73
2021/11/21 03:38:25;;;;;;;83.18;35.70;;;8.80;99.90;;;;;;4946099;28;20046;-74
2021/11/21 03:40:51;;;;;;;77.25;34.30;;;8.80;99.90;;;;;;4994208;28;20058;-75
2021/11/21 03:43:16;;;;;;;78.80;36.45;;;8.70;99.90;;;;;;4983969;28;20121;-74
2021/11/21 03:45:42;;;;;;;82.20;35.67;;;8.80;99.90;;;;;;4957833;28;20043;-74
2021/11/21 03:48:08;;;;;;;84.85;36.30;;;8.80;99.90;;;;;;4975124;28;20050;-74
2021/11/21 03:50:35;;;;;;;80.00;34.42;;;8.80;99.90;;;;;;4973014;28;20454;-73
2021/11/21 03:53:00;;;;;;;88.47;38.38;;;8.80;99.90;;;;;;4983320;28;20110;-75
2021/11/21 03:55:27;;;;;;;90.28;38.15;;;8.80;99.90;;;;;;4994280;28;20121;-73
2021/11/21 03:57:52;;;;;;;86.18;37.17;;;8.80;99.90;;;;;;4994445;28;20041;-74
2021/11/21 04:00:23;;;;;;;79.00;36.33;;;8.80;99.90;;;;;;4997953;28;20018;-74
2021/11/21 04:02:50;;;;;;;76.00;34.72;;;8.80;99.90;;;;;;4996116;28;20037;-74
2021/11/21 04:05:17;;;;;;;77.68;34.80;;;8.80;99.90;;;;;;5013839;28;20030;-74
2021/11/21 04:07:43;;;;;;;80.70;35.70;;;8.70;99.90;;;;;;4996128;28;20096;-74
2021/11/21 04:10:09;;;;;;;73.47;35.20;;;8.80;99.90;;;;;;5013754;28;20106;-74
2021/11/21 04:12:36;;;;;;;73.40;34.83;;;8.80;99.90;;;;;;5013933;28;20029;-74
2021/11/21 04:15:03;;;;;;;79.22;35.83;;;8.80;99.90;;;;;;5013400;28;20045;-74
2021/11/21 04:17:29;;;;;;;73.10;34.25;;;8.80;99.90;;;;;;4995533;28;20465;-74
2021/11/21 04:19:55;;;;;;;73.97;34.00;;;8.80;99.90;;;;;;5013451;28;20117;-73
2021/11/21 04:22:21;;;;;;;74.68;33.10;;;8.80;99.90;;;;;;5013513;28;20124;-74
2021/11/21 04:24:46;;;;;;;77.90;34.75;;;8.80;99.90;;;;;;5013431;28;20045;-74
2021/11/21 04:27:13;;;;;;;78.95;35.00;;;8.90;99.90;;;;;;5012661;28;20053;-74
2021/11/21 04:29:39;;;;;;;78.60;35.67;;;8.80;99.90;;;;;;5013237;28;20038;-74
2021/11/21 04:32:06;;;;;;;78.28;34.15;;;8.90;99.90;;;;;;5013369;28;20034;-74
2021/11/21 04:34:31;;;;;;;72.32;33.55;;;8.90;99.90;;;;;;5013185;28;20109;-74
2021/11/21 04:36:59;;;;;;;74.32;34.10;;;8.90;99.90;;;;;;5012833;28;20142;-73
2021/11/21 04:39:25;;;;;;;67.95;32.15;;;8.90;99.90;;;;;;5013249;28;20081;-73
2021/11/21 04:41:52;;;;;;;77.28;35.42;;;9.00;99.90;;;;;;5013105;28;20048;-74
2021/11/21 04:44:18;;;;;;;68.22;32.08;;;8.90;99.90;;;;;;5013059;28;20084;-74
2021/11/21 04:46:44;;;;;;;80.53;35.97;;;8.90;99.90;;;;;;5012994;28;20042;-74
2021/11/21 04:49:10;;;;;;;72.32;34.38;;;8.90;99.90;;;;;;5012692;28;20107;-74
2021/11/21 04:51:35;;;;;;;78.05;36.15;;;8.90;99.90;;;;;;5012833;28;20486;-74
2021/11/21 04:54:03;;;;;;;79.85;35.60;;;8.90;99.90;;;;;;5012441;28;20030;-74
2021/11/21 04:56:30;;;;;;;82.72;36.05;;;8.90;99.90;;;;;;5012693;28;20372;-74
2021/11/21 04:58:55;;;;;;;79.32;38.17;;;8.90;99.90;;;;;;5012786;28;20026;-74
2021/11/21 05:01:22;;;;;;;86.20;36.88;;;8.90;99.90;;;;;;5012584;28;20037;-74
2021/11/21 05:03:48;;;;;;;85.82;37.35;;;8.90;99.90;;;;;;5012435;28;20036;-73
2021/11/21 05:06:14;;;;;;;82.63;36.08;;;8.90;99.90;;;;;;4994583;28;20029;-74
2021/11/21 05:08:39;;;;;;;78.50;36.17;;;8.90;99.90;;;;;;5012570;28;20475;-73
2021/11/21 05:11:05;;;;;;;84.75;36.42;;;8.90;99.90;;;;;;5012896;28;20041;-74
2021/11/21 05:13:31;;;;;;;86.68;37.30;;;8.90;99.90;;;;;;5013007;28;20034;-74
2021/11/21 05:15:56;;;;;;;80.75;38.67;;;8.90;99.90;;;;;;5012761;28;20030;-74
2021/11/21 05:18:22;;;;;;;92.18;39.30;;;8.80;99.90;;;;;;5012904;28;20490;-74
2021/11/21 05:20:48;;;;;;;80.30;36.25;;;8.90;99.90;;;;;;5012446;28;20054;-74
2021/11/21 05:23:14;;;;;;;91.55;39.58;;;8.90;99.90;;;;;;4994749;28;20037;-74
2021/11/21 05:25:39;;;;;;;94.22;42.15;;;8.90;99.90;;;;;;5012462;28;20030;-74
2021/11/21 05:28:05;;;;;;;91.38;40.35;;;8.90;99.90;;;;;;5012593;28;20390;-74
2021/11/21 05:30:31;;;;;;;92.38;41.08;;;8.80;99.90;;;;;;5012673;28;20046;-74
2021/11/21 05:32:56;;;;;;;92.63;41.63;;;8.90;99.90;;;;;;5012515;28;20026;-75
2021/11/21 05:35:22;;;;;;;89.43;42.75;;;8.90;99.90;;;;;;5012367;28;20050;-74
2021/11/21 05:37:50;;;;;;;103.32;41.25;;;8.90;99.90;;;;;;5012487;28;20026;-74
2021/11/21 05:40:17;;;;;;;95.72;42.63;;;8.90;99.90;;;;;;4996872;28;20041;-74
2021/11/21 05:42:43;;;;;;;99.13;43.10;;;8.90;99.90;;;;;;5015970;28;20184;-74
2021/11/21 05:45:09;;;;;;;98.38;43.95;;;8.90;99.90;;;;;;5016304;28;20105;-74
2021/11/21 05:47:35;;;;;;;93.00;43.45;;;9.00;99.90;;;;;;5016183;28;20029;-74
2021/11/21 05:50:00;;;;;;;107.43;47.15;;;9.00;99.90;;;;;;5016252;28;20502;-74
2021/11/21 05:52:26;;;;;;;112.10;48.47;;;9.00;99.90;;;;;;4996736;28;20113;-73
2021/11/21 05:54:52;;;;;;;106.47;47.15;;;9.00;99.90;;;;;;4996628;28;20074;-74
2021/11/21 05:57:18;;;;;;;116.65;48.15;;;9.00;99.90;;;;;;4996557;28;20049;-74
2021/11/21 05:59:44;;;;;;;112.40;48.58;;;9.10;99.90;;;;;;4996344;28;20041;-74
2021/11/21 06:02:10;;;;;;;113.20;45.85;;;9.10;99.90;;;;;;4996334;28;20520;-73
2021/11/21 06:04:35;;;;;;;107.28;46.20;;;9.10;99.90;;;;;;4996523;28;20093;-74
2021/11/21 06:07:01;;;;;;;118.55;47.42;;;9.20;99.90;;;;;;4996467;28;20034;-73
2021/11/21 06:09:27;;;;;;;116.75;47.30;;;9.20;99.90;;;;;;4996400;28;20026;-74
2021/11/21 06:11:54;;;;;;;111.45;47.30;;;9.20;99.90;;;;;;4996130;28;20391;-74
2021/11/21 06:14:20;;;;;;;110.47;44.30;;;9.20;99.90;;;;;;4978385;28;20060;-74
2021/11/21 06:16:46;;;;;;;105.78;44.90;;;9.20;99.90;;;;;;4995285;28;20554;-75
2021/11/21 06:19:12;;;;;;;100.05;43.88;;;9.20;99.90;;;;;;4978460;28;20121;-74
2021/11/21 06:21:38;;;;;;;101.20;42.25;;;9.20;99.90;;;;;;4995754;28;20034;-74
2021/11/21 06:24:04;;;;;;;89.63;39.60;;;9.20;99.90;;;;;;4995764;28;20089;-73
2021/11/21 06:26:30;;;;;;;95.75;40.58;;;9.20;99.90;;;;;;4978070;28;20483;-74
2021/11/21 06:28:57;;;;;;;102.28;39.85;;;9.10;99.90;;;;;;4978437;28;20062;-74
2021/11/21 06:31:23;;;;;;;92.05;41.30;;;9.10;99.90;;;;;;4978357;28;20438;-74
2021/11/21 06:33:49;;;;;;;100.88;41.22;;;9.10;99.90;;;;;;4995557;28;20045;-73
2021/11/21 06:36:15;;;;;;;103.10;42.03;;;9.10;99.90;;;;;;4994782;28;20487;-74
2021/11/21 06:38:41;;;;;;;86.10;38.88;;;9.10;99.90;;;;;;4995090;28;20484;-74
2021/11/21 06:41:07;;;;;;;93.30;42.20;;;9.10;99.90;;;;;;4995151;28;20481;-74
2021/11/21 06:43:33;;;;;;;97.07;41.95;;;9.10;99.90;;;;;;4995264;28;20062;-74
2021/11/21 06:45:59;;;;;;;94.07;40.67;;;9.10;99.90;;;;;;4995099;28;20069;-74
2021/11/21 06:48:25;;;;;;;104.93;42.55;;;9.20;99.90;;;;;;4995036;28;20034;-74
2021/11/21 06:50:53;;;;;;;98.97;41.85;;;9.20;99.90;;;;;;4994477;28;20060;-74
2021/11/21 06:53:22;;;;;;;101.38;42.05;;;9.30;99.90;;;;;;4994986;28;20092;-74
2021/11/21 06:55:49;;;;;;;93.07;41.35;;;9.30;99.90;;;;;;4993924;28;20078;-74
2021/11/21 06:58:15;;;;;;;94.47;40.17;;;9.30;99.90;;;;;;4976679;28;20078;-74
2021/11/21 07:00:41;;;;;;;100.57;44.47;;;9.20;99.90;;;;;;4994865;28;20054;-74
2021/11/21 07:03:07;;;;;;;86.80;38.97;;;9.30;99.90;;;;;;4995458;28;20038;-73
2021/11/21 07:05:33;;;;;;;95.72;42.67;;;9.30;99.90;;;;;;4995288;28;20564;-73
2021/11/21 07:07:59;;;;;;;95.68;42.00;;;9.30;99.90;;;;;;4995487;28;20031;-73
2021/11/21 07:10:25;;;;;;;97.93;43.05;;;9.30;99.90;;;;;;4995275;28;20080;-74
2021/11/21 07:12:51;;;;;;;94.88;43.03;;;9.30;99.90;;;;;;4995623;28;20060;-74
2021/11/21 07:15:17;;;;;;;93.35;41.28;;;9.30;99.90;;;;;;4995125;28;20148;-73
2021/11/21 07:17:44;;;;;;;87.82;39.10;;;9.40;99.90;;;;;;4994889;28;20395;-73
2021/11/21 07:20:15;;;;;;;98.22;38.85;;;9.40;99.90;;;;;;4977704;28;20036;-73
2021/11/21 07:22:50;;;;;;;96.65;39.72;;;9.40;99.90;;;;;;4994930;28;20495;-73
2021/11/21 07:25:18;;;;;;;99.93;42.75;;;9.40;99.90;;;;;;4994746;28;20038;-73
2021/11/21 07:27:44;;;;;;;96.00;42.28;;;9.40;99.90;;;;;;4994760;28;20069;-74
2021/11/21 07:30:16;;;;;;;88.38;39.22;;;9.40;99.90;;;;;;4976967;28;20054;-74
2021/11/21 07:32:43;;;;;;;95.13;42.05;;;9.50;99.90;;;;;;4994462;28;20089;-74
2021/11/21 07:35:10;;;;;;;101.32;40.45;;;9.50;99.90;;;;;;4994035;28;20113;-74
2021/11/21 07:37:36;;;;;;;92.30;40.35;;;9.60;99.90;;;;;;4977009;28;20038;-73
2021/11/21 07:40:03;;;;;;;91.60;40.40;;;9.60;99.90;;;;;;4994734;28;20034;-74
2021/11/21 07:42:29;;;;;;;95.00;42.80;;;9.60;99.90;;;;;;4994747;28;20043;-73
2021/11/21 07:44:55;;;;;;;89.75;40.20;;;9.60;99.90;;;;;;4994711;28;20042;-74
2021/11/21 07:47:21;;;;;;;92.68;40.70;;;9.60;99.90;;;;;;4994702;28;20088;-74
2021/11/21 07:49:47;;;;;;;93.32;40.78;;;9.60;99.90;;;;;;4994359;28;20507;-73
2021/11/21 07:52:13;;;;;;;89.93;40.78;;;9.70;99.90;;;;;;4993980;28;20132;-73
2021/11/21 07:54:40;;;;;;;98.95;41.08;;;9.70;99.90;;;;;;4994102;28;20030;-74
2021/11/21 07:57:06;;;;;;;88.53;40.25;;;9.70;99.90;;;;;;4994182;28;20440;-73
2021/11/21 07:59:32;;;;;;;95.45;39.72;;;9.70;99.90;;;;;;4994255;28;20023;-74
2021/11/21 08:01:57;;;;;;;87.65;40.22;;;9.80;99.90;;;;;;4993274;28;20521;-74
2021/11/21 08:04:23;;;;;;;99.38;39.22;;;9.90;99.90;;;;;;4994282;28;20395;-73
2021/11/21 08:06:49;;;;;;;81.10;35.90;;;9.90;99.90;;;;;;4994067;28;20027;-73
2021/11/21 08:09:14;;;;;;;79.25;36.38;;;10.00;99.90;;;;;;4994009;28;20391;-74
2021/11/21 08:11:40;;;;;;;72.88;34.70;;;10.00;99.90;;;;;;4994038;28;20031;-74
2021/11/21 08:14:06;;;;;;;65.63;30.13;;;10.00;99.90;;;;;;4994133;28;20038;-74
2021/11/21 08:16:32;;;;;;;66.38;31.95;;;10.10;99.90;;;;;;4993714;28;20062;-74
2021/11/21 08:18:57;;;;;;;60.03;29.58;;;10.10;99.90;;;;;;4993824;28;20056;-74
2021/11/21 08:21:23;;;;;;;62.50;28.20;;;10.10;99.90;;;;;;4993820;28;20042;-74
2021/11/21 08:23:49;;;;;;;62.67;28.60;;;10.10;99.90;;;;;;4976527;28;20030;-74
2021/11/21 08:26:14;;;;;;;58.05;27.67;;;10.10;99.90;;;;;;4993999;28;20034;-74
2021/11/21 08:28:40;;;;;;;48.88;24.77;;;10.10;99.90;;;;;;4993968;28;20026;-74
2021/11/21 08:31:07;;;;;;;51.88;26.00;;;10.10;99.90;;;;;;4976310;28;20037;-74
2021/11/21 08:33:33;;;;;;;59.10;24.95;;;10.10;99.90;;;;;;4976409;28;20070;-74
2021/11/21 08:35:59;;;;;;;54.38;26.95;;;10.10;99.90;;;;;;4993440;28;20046;-73
2021/11/21 08:38:25;;;;;;;57.70;25.67;;;10.10;99.90;;;;;;4976018;28;20046;-74
2021/11/21 08:40:51;;;;;;;46.10;24.65;;;10.20;99.90;;;;;;4993280;28;20035;-74
2021/11/21 08:43:16;;;;;;;51.72;25.50;;;10.20;99.90;;;;;;4975719;28;20080;-74
2021/11/21 08:45:42;;;;;;;50.92;24.70;;;10.30;99.90;;;;;;4993772;28;20046;-74
2021/11/21 08:48:08;;;;;;;49.55;25.33;;;10.30;99.90;;;;;;4992766;28;20049;-73
2021/11/21 08:50:34;;;;;;;56.55;25.85;;;10.30;99.90;;;;;;4972599;28;20145;-72
2021/11/21 08:53:00;;;;;;;57.88;27.00;;;10.30;99.90;;;;;;4992120;28;20244;-73
2021/11/21 08:55:26;;;;;;;51.92;25.15;;;10.30;99.90;;;;;;4991941;28;20873;-72
2021/11/21 08:57:52;;;;;;;52.03;25.45;;;10.30;99.90;;;;;;4992953;28;20562;-74
2021/11/21 09:00:18;;;;;;;57.42;26.15;;;10.40;99.90;;;;;;4992544;28;20121;-74
2021/11/21 09:02:49;;;;;;;53.95;26.35;;;10.40;99.90;;;;;;4992484;28;20104;-73
2021/11/21 09:05:16;;;;;;;57.30;25.30;;;10.40;99.90;;;;;;4990184;28;20035;-72
2021/11/21 09:07:44;;;;;;;58.35;25.95;;;10.40;99.90;;;;;;4992478;28;20101;-73
2021/11/21 09:10:15;;;;;;;55.40;26.42;;;10.50;99.90;;;;;;4992684;28;20081;-73
2021/11/21 09:12:42;;;;;;;53.35;25.95;;;10.40;99.90;;;;;;4992674;28;20387;-73
2021/11/21 09:15:10;;;;;;;52.33;24.48;;;10.50;99.90;;;;;;4996500;28;20033;-74
2021/11/21 09:17:36;;;;;;;49.20;24.92;;;10.50;99.90;;;;;;4994087;28;20025;-72
2021/11/21 09:20:03;;;;;;;54.30;25.65;;;10.60;99.90;;;;;;4996759;28;20391;-73
2021/11/21 09:22:29;;;;;;;56.80;26.58;;;10.70;99.90;;;;;;4996148;28;20039;-72
2021/11/21 09:24:55;;;;;;;55.17;27.52;;;10.70;99.90;;;;;;4990652;28;20035;-75
2021/11/21 09:27:21;;;;;;;54.30;27.05;;;10.70;99.90;;;;;;4979337;28;20391;-73
2021/11/21 09:29:46;;;;;;;60.42;28.70;;;10.70;99.90;;;;;;4996436;28;20097;-75
2021/11/21 09:32:13;;;;;;;61.70;30.20;;;10.80;99.90;;;;;;4993792;28;20030;-74
2021/11/21 09:34:39;;;;;;;66.43;29.58;;;10.80;99.90;;;;;;4996450;28;20061;-74
2021/11/21 09:37:05;;;;;;;63.97;30.60;;;10.80;99.90;;;;;;4996306;28;20084;-74
2021/11/21 09:39:35;;;;;;;64.07;29.75;;;10.80;99.90;;;;;;4996240;28;20038;-73
2021/11/21 09:42:02;;;;;;;63.20;30.25;;;10.90;99.90;;;;;;4972093;28;20187;-72
2021/11/21 09:44:28;;;;;;;66.57;30.30;;;10.90;99.90;;;;;;4977785;28;20038;-72
2021/11/21 09:46:54;;;;;;;69.95;32.65;;;10.90;99.90;;;;;;4987835;28;20483;-73
2021/11/21 09:49:21;;;;;;;61.55;30.38;;;10.90;99.90;;;;;;4984010;28;20033;-73
2021/11/21 09:51:49;;;;;;;62.92;29.52;;;11.00;99.90;;;;;;4993368;28;20069;-75
2021/11/21 09:54:15;;;;;;;60.75;28.55;;;11.00;99.90;;;;;;4972974;28;20061;-73
2021/11/21 09:56:43;;;;;;;60.60;29.45;;;11.00;99.90;;;;;;4995110;28;20395;-75
2021/11/21 09:59:09;;;;;;;64.45;31.73;;;11.00;99.90;;;;;;4995283;28;20125;-75
2021/11/21 10:01:41;;;;;;;68.28;32.45;;;11.00;99.90;;;;;;4994844;28;20122;-74
2021/11/21 10:04:08;;;;;;;66.55;32.60;;;11.00;99.90;;;;;;4993075;28;20033;-71
2021/11/21 10:06:37;;;;;;;73.53;33.53;;;11.00;99.90;;;;;;4997821;28;20039;-75
2021/11/21 10:09:05;;;;;;;79.85;36.58;;;11.00;99.90;;;;;;4996896;28;20042;-73
2021/11/21 10:11:31;;;;;;;78.50;36.25;;;11.00;99.90;;;;;;4995416;28;20038;-72
2021/11/21 10:14:05;;;;;;;79.65;36.95;;;11.00;99.90;;;;;;4996171;28;20109;-72
2021/11/21 10:16:34;;;;;;;77.22;36.65;;;11.10;99.90;;;;;;4995068;28;20041;-73
2021/11/21 10:19:08;;;;;;;79.70;38.42;;;11.20;99.90;;;;;;4977506;28;20054;-72
2021/11/21 10:21:35;;;;;;;74.80;36.88;;;11.20;99.90;;;;;;4994382;28;20117;-74
2021/11/21 10:24:25;;;;;;;81.05;37.50;;;11.20;99.90;;;;;;4996541;28;20498;-73
2021/11/21 10:27:16;;;;;;;76.32;37.15;;;11.20;99.90;;;;;;4995104;28;20035;-72
2021/11/21 10:29:49;;;;;;;72.65;35.45;;;11.30;99.90;;;;;;4996698;28;20031;-73
2021/11/21 10:32:21;;;;;;;71.80;35.10;;;11.40;99.90;;;;;;4996215;28;20054;-72
2021/11/21 10:34:48;;;;;;;;;;;11.40;99.90;;;;;;4996815;28;20068;-73
2021/11/21 10:37:14;;;;;;;73.50;36.13;;;11.40;99.90;;;;;;4995891;28;19917;-73
2021/11/21 10:39:46;;;;;;;71.60;34.22;;;11.40;99.90;;;;;;4997308;28;20475;-73
2021/11/21 10:42:13;;;;;;;77.95;35.75;;;11.40;99.90;;;;;;4991944;28;20049;-74
2021/11/21 10:44:51;;;;;;;70.75;34.47;;;11.40;99.90;;;;;;4977078;28;20059;-73
2021/11/21 10:47:16;;;;;;;77.93;36.75;;;11.40;99.90;;;;;;4983168;28;20027;-72
2021/11/21 10:49:42;;;;;;;72.22;34.42;;;11.50;99.90;;;;;;4995724;28;20501;-72
2021/11/21 10:52:20;;;;;;;74.10;35.80;;;11.50;99.90;;;;;;4978373;28;20549;-73
2021/11/21 10:54:57;;;;;;;73.15;35.53;;;11.60;99.90;;;;;;4995680;28;20044;-73
2021/11/21 10:57:36;;;;;;;76.55;38.92;;;11.60;99.90;;;;;;4995748;28;20085;-74
2021/11/21 11:00:13;;;;;;;78.30;37.10;;;11.60;99.90;;;;;;4995252;28;20462;-74
2021/11/21 11:02:41;;;;;;;71.07;35.45;;;11.60;99.90;;;;;;4994848;28;20043;-73
2021/11/21 11:05:21;;;;;;;70.45;33.95;;;11.70;99.90;;;;;;4994448;28;20105;-72
2021/11/21 11:07:47;;;;;;;64.13;33.75;;;11.70;99.90;;;;;;4994519;28;20530;-72
2021/11/21 11:10:24;;;;;;;71.25;35.28;;;11.80;99.90;;;;;;4995022;28;20042;-70
2021/11/21 11:12:53;;;;;;;76.10;37.10;;;11.70;99.90;;;;;;4995323;28;20034;-73
2021/11/21 11:15:21;;;;;;;68.97;34.33;;;11.80;99.90;;;;;;4996179;28;20038;-72
2021/11/21 11:17:48;;;;;;;80.63;39.75;;;11.80;99.90;;;;;;4998623;28;20030;-74
2021/11/21 11:20:17;;;;;;;70.43;33.20;;;11.80;99.90;;;;;;4989284;28;20035;-74
2021/11/21 11:22:43;;;;;;;60.88;32.85;;;11.90;99.90;;;;;;4988450;28;20648;-73
2021/11/21 11:25:23;;;;;;;67.40;33.67;;;11.90;99.90;;;;;;4993204;28;20034;-72
2021/11/21 11:27:57;;;;;;;73.45;38.58;;;11.90;99.90;;;;;;4992597;28;20031;-74
2021/11/21 11:30:32;;;;;;;71.07;36.80;;;12.00;99.90;;;;;;4982728;28;20186;-74
2021/11/21 11:33:35;;;;;;;67.68;33.83;;;12.00;99.90;;;;;;4992037;28;20042;-74
2021/11/21 11:36:00;;;;;;;68.95;33.17;;;12.00;99.90;;;;;;4992723;28;20546;-74
2021/11/21 11:38:32;;;;;;;70.32;34.72;;;12.10;99.90;;;;;;4974359;28;20038;-73
2021/11/21 11:41:01;;;;;;;75.10;35.30;;;12.00;99.90;;;;;;4992831;28;20037;-74
2021/11/21 11:43:32;;;;;;;65.18;33.67;;;12.10;99.90;;;;;;4993002;28;20038;-74
2021/11/21 11:46:07;;;;;;;70.73;33.87;;;12.10;99.90;;;;;;4992183;28;20113;-73
2021/11/21 11:48:35;;;;;;;73.25;35.35;;;12.20;99.90;;;;;;4974208;28;20042;-73
2021/11/21 11:51:19;;;;;;;65.50;35.67;;;12.10;99.90;;;;;;4982249;28;20403;-74
2021/11/21 11:53:50;;;;;;;85.30;39.70;;;12.20;99.90;;;;;;4981671;28;20033;-73
2021/11/21 11:56:28;;;;;;;96.05;45.45;;;12.10;99.90;;;;;;4956003;28;20050;-73
2021/11/21 11:58:55;;;;;;;99.65;47.75;;;12.20;99.90;;;;;;4979608;28;20031;-74
2021/11/21 12:01:39;;;;;;;88.35;41.95;;;12.20;99.90;;;;;;4973226;28;20050;-74
2021/11/21 12:04:16;;;;;;;91.63;45.90;;;12.20;99.90;;;;;;4991961;28;20157;-74
2021/11/21 12:06:48;;;;;;;94.97;47.03;;;12.30;99.90;;;;;;4973825;28;20030;-73
2021/11/21 12:09:17;;;;;;;90.60;44.08;;;12.30;99.90;;;;;;4990161;28;20091;-76
2021/11/21 12:12:08;;;;;;;90.63;44.17;;;12.30;99.90;;;;;;4991441;28;20058;-75
2021/11/21 12:14:42;;;;;;;87.40;43.80;;;12.30;99.90;;;;;;4974867;28;20030;-74
2021/11/21 12:17:16;;;;;;;91.13;43.63;;;12.40;99.90;;;;;;4975073;28;20395;-75
2021/11/21 12:19:47;;;;;;;92.28;45.92;;;12.40;99.90;;;;;;4975078;28;20064;-75
2021/11/21 12:22:28;;;;;;;100.20;48.15;;;12.40;99.90;;;;;;4992427;28;20451;-75
2021/11/21 12:25:01;;;;;;;102.05;47.03;;;12.40;99.90;;;;;;4992819;28;20054;-75
2021/11/21 12:27:30;;;;;;;103.55;47.38;;;12.40;99.90;;;;;;4992729;28;20403;-75
2021/11/21 12:30:11;;;;;;;110.95;50.30;;;12.50;99.90;;;;;;4992888;28;20041;-75
2021/11/21 12:33:05;;;;;;;107.63;53.23;;;12.50;99.90;;;;;;4974581;28;20034;-74